createdAt,value
2023-05-14T00:00:36.309Z,79.82
2023-05-14T00:03:24.438Z,79.79
2023-05-14T00:05:52.457Z,80.38
2023-05-14T00:08:20.723Z,80.97
2023-05-14T00:10:48.703Z,81.08
2023-05-14T00:13:16.898Z,81.70
2023-05-14T00:15:45.342Z,81.69
2023-05-14T00:18:13.521Z,81.51
2023-05-14T00:20:41.718Z,81.30
2023-05-14T00:23:10.172Z,81.37
2023-05-14T00:25:38.818Z,81.24
2023-05-14T00:28:07.858Z,81.13
2023-05-14T00:30:36.274Z,80.98
2023-05-14T00:33:04.345Z,81.16
2023-05-14T00:35:37.163Z,81.74
2023-05-14T00:38:05.390Z,81.59
2023-05-14T00:40:34.292Z,81.38
2023-05-14T00:43:03.772Z,81.35
2023-05-14T00:45:31.817Z,81.31
2023-05-14T00:48:00.062Z,81.08
2023-05-14T00:50:28.500Z,81.08
2023-05-14T00:52:56.767Z,81.06
2023-05-14T00:55:25.835Z,80.94
2023-05-14T00:57:58.178Z,80.79
2023-05-14T01:00:26.355Z,80.60
2023-05-14T01:02:54.400Z,80.50
2023-05-14T01:05:26.432Z,80.56
2023-05-14T01:08:16.667Z,81.16
2023-05-14T01:10:52.401Z,81.28
2023-05-14T01:13:37.585Z,81.20
2023-05-14T01:16:12.529Z,81.04
2023-05-14T01:18:43.447Z,81.03
2023-05-14T01:21:34.950Z,80.89
2023-05-14T01:24:03.188Z,80.83
2023-05-14T01:26:31.704Z,81.34
2023-05-14T01:29:06.760Z,82.27
2023-05-14T01:31:39.135Z,82.73
2023-05-14T01:34:10.059Z,82.95
2023-05-14T01:36:40.415Z,82.54
2023-05-14T01:39:10.858Z,82.07
2023-05-14T01:41:40.523Z,81.83
2023-05-14T01:44:11.969Z,81.80
2023-05-14T01:46:40.235Z,81.52
2023-05-14T01:49:08.563Z,81.37
2023-05-14T01:51:37.837Z,81.41
2023-05-14T01:54:06.214Z,81.41
2023-05-14T01:56:34.617Z,81.50
2023-05-14T01:59:02.598Z,81.74
2023-05-14T02:01:31.814Z,81.91
2023-05-14T02:04:01.202Z,82.08
2023-05-14T02:06:29.368Z,82.03
2023-05-14T02:08:57.615Z,82.07
2023-05-14T02:11:26.406Z,82.07
2023-05-14T02:13:56.031Z,82.02
2023-05-14T02:16:24.178Z,82.06
2023-05-14T02:18:53.024Z,82.01
2023-05-14T02:21:26.976Z,81.96
2023-05-14T02:23:57.807Z,81.84
2023-05-14T02:26:25.885Z,81.79
2023-05-14T02:28:53.974Z,81.67
2023-05-14T02:31:22.071Z,81.58
2023-05-14T02:33:50.425Z,81.57
2023-05-14T02:36:18.676Z,81.31
2023-05-14T02:38:46.719Z,81.41
2023-05-14T02:41:14.958Z,82.19
2023-05-14T02:43:42.907Z,82.25
2023-05-14T02:46:11.101Z,82.50
2023-05-14T02:48:39.084Z,83.01
2023-05-14T02:51:08.418Z,83.57
2023-05-14T02:53:36.618Z,84.12
2023-05-14T02:56:05.033Z,84.61
2023-05-14T02:58:33.184Z,84.97
2023-05-14T03:01:01.326Z,85.10
2023-05-14T03:03:31.416Z,85.16
2023-05-14T03:05:59.839Z,85.33
2023-05-14T03:08:27.973Z,85.42
2023-05-14T03:10:56.102Z,85.31
2023-05-14T03:13:24.175Z,84.83
2023-05-14T03:15:55.080Z,83.95
2023-05-14T03:18:24.759Z,82.89
2023-05-14T03:20:52.889Z,82.26
2023-05-14T03:23:21.072Z,80.49
2023-05-14T03:25:49.100Z,79.14
2023-05-14T03:28:17.094Z,77.29
2023-05-14T03:30:45.133Z,76.83
2023-05-14T03:33:13.764Z,76.23
2023-05-14T03:35:41.924Z,74.64
2023-05-14T03:38:10.206Z,74.31
2023-05-14T03:40:38.298Z,73.70
2023-05-14T03:43:06.458Z,74.31
2023-05-14T03:45:35.443Z,74.46
2023-05-14T03:48:03.811Z,74.97
2023-05-14T03:50:34.352Z,74.54
2023-05-14T03:53:02.392Z,73.88
2023-05-14T03:55:31.460Z,74.48
2023-05-14T03:57:59.440Z,74.18
2023-05-14T04:05:12.592Z,75.10
2023-05-14T04:07:40.860Z,75.18
2023-05-14T04:10:09.298Z,75.72
2023-05-14T04:12:37.492Z,75.06
2023-05-14T04:15:06.710Z,74.63
2023-05-14T04:17:35.163Z,74.63
2023-05-14T04:20:04.563Z,74.12
2023-05-14T04:22:32.839Z,73.64
2023-05-14T04:25:00.806Z,73.44
2023-05-14T04:27:29.019Z,72.69
2023-05-14T04:29:57.009Z,72.46
2023-05-14T04:34:37.658Z,70.97
2023-05-14T04:37:05.612Z,69.31
2023-05-14T04:39:33.752Z,67.42
2023-05-14T04:42:01.882Z,63.72
2023-05-14T04:44:29.806Z,61.58
2023-05-14T04:46:57.779Z,58.76
2023-05-14T04:49:26.193Z,56.35
2023-05-14T04:51:54.188Z,61.56
2023-05-14T04:54:22.193Z,53.80
2023-05-14T04:56:50.405Z,48.68
2023-05-14T04:59:18.257Z,46.19
2023-05-14T05:01:46.700Z,45.55
2023-05-14T05:04:14.717Z,42.59
2023-05-14T05:06:42.748Z,40.52
2023-05-14T05:09:11.800Z,37.31
2023-05-14T05:11:40.085Z,36.00
2023-05-14T05:14:08.043Z,37.08
2023-05-14T05:16:36.270Z,34.86
2023-05-14T05:19:04.299Z,33.30
2023-05-14T05:21:32.332Z,34.77
2023-05-14T05:24:00.260Z,37.42
2023-05-14T05:26:28.452Z,38.87
2023-05-14T05:28:56.441Z,40.01
2023-05-14T05:31:25.076Z,41.23
2023-05-14T05:33:53.200Z,40.75
2023-05-14T05:36:21.273Z,40.26
2023-05-14T05:38:49.242Z,39.79
2023-05-14T05:41:17.409Z,41.64
2023-05-14T05:43:45.714Z,43.08
2023-05-14T05:46:14.750Z,43.55
2023-05-14T05:48:43.794Z,42.85
2023-05-14T05:51:12.098Z,43.02
2023-05-14T05:53:40.399Z,42.87
2023-05-14T05:56:08.249Z,43.09
2023-05-14T05:58:37.186Z,42.66
2023-05-14T06:01:05.214Z,41.69
2023-05-14T06:03:33.552Z,40.12
2023-05-14T06:06:01.416Z,39.31
2023-05-14T06:08:29.373Z,40.20
2023-05-14T06:10:57.660Z,38.99
2023-05-14T06:13:26.275Z,39.82
2023-05-14T06:15:54.689Z,40.94
2023-05-14T06:18:22.596Z,40.12
2023-05-14T06:20:50.594Z,39.12
2023-05-14T06:23:18.581Z,38.02
2023-05-14T06:25:47.897Z,37.24
2023-05-14T06:28:17.535Z,38.06
2023-05-14T06:30:45.499Z,37.43
2023-05-14T06:33:15.091Z,38.23
2023-05-14T06:35:44.591Z,38.33
2023-05-14T06:38:12.503Z,38.74
2023-05-14T06:40:40.403Z,39.24
2023-05-14T06:43:08.537Z,39.03
2023-05-14T06:45:36.643Z,38.55
2023-05-14T06:48:04.816Z,38.40
2023-05-14T06:50:32.735Z,37.51
2023-05-14T06:53:00.947Z,38.31
2023-05-14T06:55:28.843Z,38.26
2023-05-14T06:57:56.720Z,37.20
2023-05-14T07:00:25.119Z,38.28
2023-05-14T07:02:53.431Z,37.47
2023-05-14T07:05:21.660Z,36.66
2023-05-14T07:07:50.214Z,37.07
2023-05-14T07:10:18.137Z,37.01
2023-05-14T07:12:46.101Z,35.90
2023-05-14T07:15:14.766Z,34.83
2023-05-14T07:17:42.985Z,34.05
2023-05-14T07:20:11.572Z,34.52
2023-05-14T07:22:39.622Z,35.07
2023-05-14T07:25:08.003Z,32.18
2023-05-14T07:27:36.047Z,33.43
2023-05-14T07:30:04.295Z,34.73
2023-05-14T07:32:32.154Z,34.19
2023-05-14T07:35:00.235Z,34.49
2023-05-14T07:37:28.136Z,33.52
2023-05-14T07:39:56.395Z,32.69
2023-05-14T07:42:35.159Z,32.83
2023-05-14T07:45:04.366Z,30.99
2023-05-14T07:47:32.485Z,31.35
2023-05-14T07:50:00.601Z,31.69
2023-05-14T07:52:28.799Z,31.33
2023-05-14T07:54:56.724Z,32.53
2023-05-14T07:57:26.470Z,32.25
2023-05-14T07:59:54.334Z,32.49
2023-05-14T08:02:22.605Z,32.71
2023-05-14T08:04:50.594Z,33.97
2023-05-14T08:07:18.834Z,32.18
2023-05-14T08:09:47.183Z,32.48
2023-05-14T08:12:16.065Z,32.72
2023-05-14T08:14:44.179Z,33.54
2023-05-14T08:17:12.452Z,35.54
2023-05-14T08:19:40.692Z,34.91
2023-05-14T08:22:08.708Z,34.27
2023-05-14T08:24:36.592Z,33.46
2023-05-14T08:27:04.752Z,33.58
2023-05-14T08:29:32.904Z,33.32
2023-05-14T08:32:08.390Z,32.82
2023-05-14T08:34:44.130Z,33.88
2023-05-14T08:37:12.443Z,33.48
2023-05-14T08:39:40.813Z,33.31
2023-05-14T08:42:12.314Z,33.37
2023-05-14T08:44:46.715Z,33.63
2023-05-14T08:47:15.943Z,33.68
2023-05-14T08:49:46.600Z,34.50
2023-05-14T08:52:16.402Z,34.57
2023-05-14T08:54:45.486Z,34.72
2023-05-14T08:57:14.872Z,34.80
2023-05-14T08:59:43.728Z,36.01
2023-05-14T09:02:14.553Z,34.98
2023-05-14T09:04:42.697Z,34.57
2023-05-14T09:07:11.628Z,34.52
2023-05-14T09:09:40.487Z,34.15
2023-05-14T09:12:08.828Z,34.27
2023-05-14T09:14:36.930Z,34.34
2023-05-14T09:17:05.410Z,33.50
2023-05-14T09:19:33.425Z,33.89
2023-05-14T09:22:01.326Z,33.46
2023-05-14T09:24:29.684Z,33.26
2023-05-14T09:26:58.120Z,34.05
2023-05-14T09:29:27.788Z,36.10
2023-05-14T09:31:56.984Z,35.17
2023-05-14T09:34:26.261Z,35.22
2023-05-14T09:36:57.360Z,33.75
2023-05-14T09:39:26.479Z,34.23
2023-05-14T09:41:54.957Z,33.85
2023-05-14T09:44:23.452Z,33.78
2023-05-14T09:46:52.162Z,33.08
2023-05-14T09:49:22.071Z,33.37
2023-05-14T09:51:51.201Z,33.81
2023-05-14T09:54:19.282Z,34.12
2023-05-14T09:56:47.170Z,34.99
2023-05-14T09:59:15.253Z,34.46
2023-05-14T10:01:44.423Z,34.07
2023-05-14T10:04:12.948Z,34.69
2023-05-14T10:06:43.432Z,33.97
2023-05-14T10:09:13.284Z,33.78
2023-05-14T10:11:45.371Z,35.13
2023-05-14T10:14:18.554Z,35.25
2023-05-14T10:16:50.511Z,34.90
2023-05-14T10:19:20.968Z,33.08
2023-05-14T10:21:53.241Z,32.81
2023-05-14T10:24:22.090Z,33.93
2023-05-14T10:26:50.124Z,34.37
2023-05-14T10:29:18.090Z,34.17
2023-05-14T10:31:47.405Z,35.42
2023-05-14T10:34:31.505Z,35.28
2023-05-14T10:37:00.902Z,33.23
2023-05-14T10:39:45.225Z,32.75
2023-05-14T10:42:23.606Z,33.47
2023-05-14T10:45:02.040Z,33.53
2023-05-14T10:47:30.503Z,33.69
2023-05-14T10:49:59.344Z,33.31
2023-05-14T10:52:27.426Z,33.70
2023-05-14T10:54:57.482Z,33.33
2023-05-14T10:57:27.682Z,32.90
2023-05-14T10:59:56.544Z,31.73
2023-05-14T11:04:50.717Z,31.23
2023-05-14T11:07:24.334Z,32.77
2023-05-14T11:09:53.237Z,33.08
2023-05-14T11:12:21.401Z,32.18
2023-05-14T11:14:50.360Z,32.39
2023-05-14T11:17:18.438Z,32.08
2023-05-14T11:19:46.543Z,31.31
2023-05-14T11:22:14.661Z,31.44
2023-05-14T11:24:42.837Z,31.67
2023-05-14T11:27:10.949Z,31.75
2023-05-14T11:29:39.226Z,31.84
2023-05-14T11:32:07.448Z,30.75
2023-05-14T11:34:37.327Z,31.88
2023-05-14T11:37:06.020Z,30.44
2023-05-14T11:39:34.197Z,31.36
2023-05-14T11:42:06.056Z,32.11
2023-05-14T11:44:33.989Z,33.93
2023-05-14T11:47:02.146Z,33.74
2023-05-14T11:49:30.308Z,33.72
2023-05-14T11:52:23.254Z,33.37
2023-05-14T11:54:51.513Z,33.58
2023-05-14T11:57:21.117Z,31.54
2023-05-14T11:59:49.891Z,34.16
2023-05-14T12:02:19.846Z,34.08
2023-05-14T12:04:50.850Z,32.76
2023-05-14T12:07:18.858Z,33.28
2023-05-14T12:09:50.856Z,33.36
2023-05-14T12:12:20.053Z,32.94
2023-05-14T12:14:49.304Z,33.56
2023-05-14T12:17:18.798Z,34.09
2023-05-14T12:19:48.270Z,35.23
2023-05-14T12:22:17.995Z,33.19
2023-05-14T12:24:59.007Z,33.16
2023-05-14T12:27:27.993Z,33.30
2023-05-14T12:30:20.124Z,33.57
2023-05-14T12:32:51.990Z,33.39
2023-05-14T12:35:21.492Z,33.84
2023-05-14T12:37:49.418Z,34.01
2023-05-14T12:40:17.364Z,33.63
2023-05-14T12:42:45.879Z,32.51
2023-05-14T12:45:14.378Z,32.66
2023-05-14T12:47:42.605Z,32.81
2023-05-14T12:50:10.895Z,31.87
2023-05-14T12:52:40.208Z,31.62
2023-05-14T12:55:09.384Z,32.66
2023-05-14T12:57:39.284Z,32.91
2023-05-14T13:00:08.712Z,33.39
2023-05-14T13:02:43.163Z,32.88
2023-05-14T13:05:12.376Z,33.96
2023-05-14T13:07:41.149Z,32.43
2023-05-14T13:10:09.379Z,32.54
2023-05-14T13:12:37.249Z,32.35
2023-05-14T13:15:06.563Z,32.38
2023-05-14T13:17:34.592Z,32.36
2023-05-14T13:20:02.507Z,33.62
2023-05-14T13:22:30.418Z,33.28
2023-05-14T13:24:59.042Z,33.00
2023-05-14T13:27:27.319Z,33.83
2023-05-14T13:29:55.616Z,34.17
2023-05-14T13:32:23.661Z,33.48
2023-05-14T13:34:51.633Z,33.50
2023-05-14T13:37:19.890Z,33.78
2023-05-14T13:39:49.535Z,32.96
2023-05-14T13:42:19.356Z,32.59
2023-05-14T13:44:47.269Z,33.08
2023-05-14T13:47:15.526Z,33.04
2023-05-14T13:49:43.699Z,33.00
2023-05-14T13:52:11.738Z,33.16
2023-05-14T13:54:39.639Z,32.61
2023-05-14T13:57:07.528Z,32.90
2023-05-14T13:59:35.871Z,33.51
2023-05-14T14:02:04.284Z,33.26
2023-05-14T14:04:32.366Z,33.04
2023-05-14T14:07:00.627Z,33.15
2023-05-14T14:09:28.449Z,33.76
2023-05-14T14:11:56.339Z,33.69
2023-05-14T14:14:24.273Z,33.91
2023-05-14T14:16:52.138Z,33.29
2023-05-14T14:19:20.999Z,33.11
2023-05-14T14:24:22.091Z,33.81
2023-05-14T14:26:50.031Z,34.09
2023-05-14T14:29:17.829Z,33.76
2023-05-14T14:31:45.913Z,32.27
2023-05-14T14:34:13.811Z,32.39
2023-05-14T14:36:41.634Z,31.69
2023-05-14T14:39:09.495Z,32.02
2023-05-14T14:41:37.414Z,33.10
2023-05-14T14:44:05.700Z,33.49
2023-05-14T14:46:34.160Z,33.49
2023-05-14T14:49:02.131Z,32.95
2023-05-14T14:51:30.420Z,33.07
2023-05-14T14:53:58.600Z,33.37
2023-05-14T14:56:26.946Z,33.32
2023-05-14T14:58:54.932Z,33.16
2023-05-14T15:01:23.150Z,33.67
2023-05-14T15:03:51.224Z,33.85
2023-05-14T15:06:19.217Z,34.57
2023-05-14T15:08:47.114Z,35.08
2023-05-14T15:11:15.426Z,34.15
2023-05-14T15:13:43.559Z,34.60
2023-05-14T15:16:12.550Z,35.67
2023-05-14T15:18:40.746Z,35.95
2023-05-14T15:21:08.885Z,36.22
2023-05-14T15:23:36.759Z,36.72
2023-05-14T15:26:04.810Z,36.66
2023-05-14T15:28:32.984Z,36.12
2023-05-14T15:31:02.468Z,36.23
2023-05-14T15:33:30.644Z,37.28
2023-05-14T15:35:58.527Z,38.08
2023-05-14T15:38:26.658Z,37.39
2023-05-14T15:40:54.637Z,36.07
2023-05-14T15:43:22.571Z,36.17
2023-05-14T15:45:50.925Z,37.08
2023-05-14T15:48:18.823Z,37.30
2023-05-14T15:50:49.553Z,36.91
2023-05-14T15:53:17.823Z,37.32
2023-05-14T15:55:48.018Z,37.90
2023-05-14T15:58:16.285Z,38.00
2023-05-14T16:00:44.374Z,38.37
2023-05-14T16:03:12.499Z,37.84
2023-05-14T16:05:42.690Z,37.64
2023-05-14T16:08:10.739Z,38.36
2023-05-14T16:10:38.737Z,38.15
2023-05-14T16:13:06.775Z,37.40
2023-05-14T16:15:34.907Z,37.44
2023-05-14T16:18:03.062Z,37.13
2023-05-14T16:20:31.125Z,37.51
2023-05-14T16:22:59.111Z,37.53
2023-05-14T16:25:27.246Z,37.44
2023-05-14T16:27:55.347Z,37.48
2023-05-14T16:30:23.649Z,36.89
2023-05-14T16:32:52.088Z,37.16
2023-05-14T16:35:20.614Z,36.98
2023-05-14T16:37:49.539Z,37.66
2023-05-14T16:40:19.651Z,37.31
2023-05-14T16:42:49.255Z,38.07
2023-05-14T16:45:17.811Z,38.58
2023-05-14T16:47:45.912Z,38.46
2023-05-14T16:50:13.985Z,38.58
2023-05-14T16:52:42.160Z,38.16
2023-05-14T16:55:10.646Z,38.19
2023-05-14T16:57:38.944Z,38.68
2023-05-14T17:00:09.616Z,38.95
2023-05-14T17:02:38.108Z,38.78
2023-05-14T17:08:01.053Z,38.82
2023-05-14T17:10:30.951Z,39.05
2023-05-14T17:12:59.904Z,39.59
2023-05-14T17:15:46.077Z,39.68
2023-05-14T17:18:14.215Z,39.87
2023-05-14T17:20:42.619Z,39.90
2023-05-14T17:23:10.770Z,39.90
2023-05-14T17:25:39.334Z,40.13
2023-05-14T17:28:07.359Z,40.32
2023-05-14T17:30:35.454Z,40.56
2023-05-14T17:33:03.821Z,40.51
2023-05-14T17:35:35.840Z,40.87
2023-05-14T17:38:03.826Z,40.92
2023-05-14T17:40:31.945Z,41.47
2023-05-14T17:42:59.873Z,41.60
2023-05-14T17:45:32.179Z,41.73
2023-05-14T17:48:04.905Z,41.49
2023-05-14T17:50:33.139Z,41.79
2023-05-14T17:53:01.211Z,42.00
2023-05-14T17:55:29.251Z,42.16
2023-05-14T17:57:57.230Z,42.11
2023-05-14T18:00:25.751Z,42.28
2023-05-14T18:02:53.790Z,42.54
2023-05-14T18:05:22.533Z,42.78
2023-05-14T18:07:51.139Z,42.85
2023-05-14T18:10:19.728Z,42.91
2023-05-14T18:12:48.060Z,43.00
2023-05-14T18:15:16.332Z,43.27
2023-05-14T18:17:44.840Z,43.63
2023-05-14T18:20:13.060Z,43.95
2023-05-14T18:22:41.399Z,44.30
2023-05-14T18:25:10.013Z,43.96
2023-05-14T18:27:44.635Z,44.32
2023-05-14T18:30:14.806Z,44.63
2023-05-14T18:32:44.578Z,45.29
2023-05-14T18:35:14.379Z,46.00
2023-05-14T18:37:42.624Z,46.57
2023-05-14T18:40:11.389Z,47.05
2023-05-14T18:42:39.539Z,48.61
2023-05-14T18:45:08.014Z,48.91
2023-05-14T18:47:36.728Z,49.31
2023-05-14T18:50:05.736Z,49.69
2023-05-14T18:52:34.100Z,49.45
2023-05-14T18:55:02.094Z,49.92
2023-05-14T18:57:32.258Z,51.32
2023-05-14T19:04:52.803Z,55.95
2023-05-14T19:07:21.717Z,56.05
2023-05-14T19:09:51.153Z,54.84
2023-05-14T19:12:19.696Z,54.66
2023-05-14T19:14:47.789Z,55.32
2023-05-14T19:17:18.356Z,55.20
2023-05-14T19:19:47.445Z,56.21
2023-05-14T19:22:15.466Z,57.13
2023-05-14T19:24:43.645Z,57.91
2023-05-14T19:27:16.382Z,59.07
2023-05-14T19:29:44.901Z,58.91
2023-05-14T19:32:12.763Z,58.94
2023-05-14T19:34:41.073Z,59.76
2023-05-14T19:37:10.829Z,59.20
2023-05-14T19:39:39.848Z,58.86
2023-05-14T19:42:07.857Z,58.56
2023-05-14T19:44:35.775Z,58.66
2023-05-14T19:47:03.980Z,59.13
2023-05-14T19:49:32.310Z,60.64
2023-05-14T19:52:00.625Z,61.02
2023-05-14T19:54:28.491Z,61.43
2023-05-14T19:56:57.021Z,62.20
2023-05-14T19:59:26.450Z,61.62
2023-05-14T20:01:55.209Z,62.16
2023-05-14T20:04:23.331Z,62.65
2023-05-14T20:06:51.516Z,62.85
2023-05-14T20:09:20.263Z,63.63
2023-05-14T20:11:48.767Z,63.63
2023-05-14T20:14:16.925Z,64.41
2023-05-14T20:16:45.237Z,65.12
2023-05-14T20:19:14.682Z,65.82
2023-05-14T20:21:42.780Z,66.03
2023-05-14T20:24:10.896Z,65.84
2023-05-14T20:26:38.861Z,65.72
2023-05-14T20:29:07.024Z,65.54
2023-05-14T20:31:35.150Z,65.59
2023-05-14T20:34:03.735Z,65.45
2023-05-14T20:36:32.105Z,66.24
2023-05-14T20:39:00.865Z,65.96
2023-05-14T20:41:29.387Z,66.09
2023-05-14T20:43:57.379Z,65.38
2023-05-14T20:46:26.100Z,64.70
2023-05-14T20:48:55.800Z,64.11
2023-05-14T20:51:24.397Z,63.92
2023-05-14T20:53:54.011Z,63.64
2023-05-14T20:56:22.677Z,63.26
2023-05-14T20:58:50.764Z,62.83
2023-05-14T21:01:19.210Z,62.12
2023-05-14T21:03:47.422Z,61.60
2023-05-14T21:06:16.628Z,61.05
2023-05-14T21:08:44.649Z,60.28
2023-05-14T21:11:14.639Z,60.11
2023-05-14T21:13:44.548Z,59.58
2023-05-14T21:16:12.841Z,59.07
2023-05-14T21:18:40.946Z,58.11
2023-05-14T21:21:09.209Z,58.01
2023-05-14T21:23:37.261Z,57.72
2023-05-14T21:26:05.200Z,57.27
2023-05-14T21:28:33.248Z,56.84
2023-05-14T21:31:01.414Z,56.54
2023-05-14T21:33:29.522Z,56.40
2023-05-14T21:35:57.573Z,56.40
2023-05-14T21:38:25.822Z,56.26
2023-05-14T21:40:53.822Z,55.85
2023-05-14T21:43:22.152Z,55.81
2023-05-14T21:45:50.528Z,55.74
2023-05-14T21:48:18.746Z,55.55
2023-05-14T21:50:47.111Z,55.44
2023-05-14T21:53:15.496Z,55.26
2023-05-14T21:55:43.509Z,55.27
2023-05-14T21:58:11.582Z,55.03
2023-05-14T22:00:39.600Z,54.85
2023-05-14T22:03:07.727Z,54.54
2023-05-14T22:05:35.964Z,54.50
2023-05-14T22:08:04.044Z,54.55
2023-05-14T22:10:32.360Z,54.54
2023-05-14T22:13:00.375Z,54.35
2023-05-14T22:15:28.573Z,53.94
2023-05-14T22:17:57.025Z,54.07
2023-05-14T22:20:25.044Z,54.09
2023-05-14T22:22:52.963Z,53.84
2023-05-14T22:25:20.953Z,53.61
2023-05-14T22:27:49.922Z,53.67
2023-05-14T22:30:17.821Z,53.84
2023-05-14T22:32:45.833Z,53.81
2023-05-14T22:35:14.786Z,53.67
2023-05-14T22:37:43.241Z,53.86
2023-05-14T22:40:13.524Z,53.49
2023-05-14T22:42:41.533Z,53.54
2023-05-14T22:45:10.545Z,53.34
2023-05-14T22:47:41.907Z,53.36
2023-05-14T22:50:11.673Z,53.47
2023-05-14T22:52:40.272Z,53.50
2023-05-14T22:55:09.239Z,53.29
2023-05-14T22:57:37.671Z,53.44
2023-05-14T23:00:08.958Z,53.34
2023-05-14T23:02:36.913Z,53.21
2023-05-14T23:05:06.330Z,53.21
2023-05-14T23:07:34.998Z,53.40
2023-05-14T23:10:03.040Z,53.40
2023-05-14T23:12:31.288Z,53.27
2023-05-14T23:14:59.306Z,53.15
2023-05-14T23:17:27.796Z,53.17
2023-05-14T23:19:56.043Z,53.44
2023-05-14T23:22:24.066Z,53.49
2023-05-14T23:24:51.995Z,53.48
2023-05-14T23:27:20.247Z,53.57
2023-05-14T23:29:48.321Z,53.66
2023-05-14T23:32:16.505Z,53.56
2023-05-14T23:34:44.559Z,53.50
2023-05-14T23:37:14.454Z,53.49
2023-05-14T23:39:42.528Z,53.73
2023-05-14T23:42:10.402Z,53.77
2023-05-14T23:44:38.331Z,53.97
2023-05-14T23:47:08.856Z,53.89
2023-05-14T23:49:37.014Z,53.85
2023-05-14T23:52:05.420Z,53.89
2023-05-14T23:54:33.385Z,54.08
2023-05-14T23:57:03.450Z,54.35
2023-05-14T23:59:31.559Z,54.25
